sensor_id;sensor_type;location;lat;lon;timestamp;pressure;altitude;pressure_sealevel;temperature;humidity
216;BME280;64590;48.81286795;9.14184224;2023-04-27T00:02:10;98359.66;;;8.82;69.97
216;BME280;64590;48.81286795;9.14184224;2023-04-27T00:04:37;98358.13;;;8.51;70.29
216;BME280;64590;48.81286795;9.14184224;2023-04-27T00:07:04;98357.78;;;8.53;70.29
216;BME280;64590;48.81286795;9.14184224;2023-04-27T00:09:32;98357.28;;;8.43;70.77
216;BME280;64590;48.81286795;9.14184224;2023-04-27T00:11:58;98354.06;;;8.38;69.70
216;BME280;64590;48.81286795;9.14184224;2023-04-27T00:14:25;98357.00;;;8.52;70.23
216;BME280;64590;48.81286795;9.14184224;2023-04-27T00:16:53;98364.72;;;8.73;70.02
216;BME280;64590;48.81286795;9.14184224;2023-04-27T00:19:20;98353.47;;;8.55;69.80
216;BME280;64590;48.81286795;9.14184224;2023-04-27T00:21:47;98353.66;;;8.36;70.80
216;BME280;64590;48.81286795;9.14184224;2023-04-27T00:24:13;98353.16;;;8.34;71.50
216;BME280;64590;48.81286795;9.14184224;2023-04-27T00:26:41;98344.69;;;8.49;72.00
216;BME280;64590;48.81286795;9.14184224;2023-04-27T00:29:08;98345.84;;;8.45;72.08
216;BME280;64590;48.81286795;9.14184224;2023-04-27T00:31:34;98347.28;;;8.69;72.20
216;BME280;64590;48.81286795;9.14184224;2023-04-27T00:34:01;98338.31;;;8.83;71.51
216;BME280;64590;48.81286795;9.14184224;2023-04-27T00:36:28;98345.38;;;8.76;70.46
216;BME280;64590;48.81286795;9.14184224;2023-04-27T00:38:54;98342.28;;;8.44;71.18
216;BME280;64590;48.81286795;9.14184224;2023-04-27T00:41:21;98343.19;;;8.56;72.03
216;BME280;64590;48.81286795;9.14184224;2023-04-27T00:43:49;98333.19;;;8.44;72.62
216;BME280;64590;48.81286795;9.14184224;2023-04-27T00:46:16;98332.88;;;8.53;72.61
216;BME280;64590;48.81286795;9.14184224;2023-04-27T00:48:44;98331.53;;;8.76;71.73
216;BME280;64590;48.81286795;9.14184224;2023-04-27T00:51:12;98330.16;;;8.60;71.99
216;BME280;64590;48.81286795;9.14184224;2023-04-27T00:53:39;98328.38;;;8.37;72.52
216;BME280;64590;48.81286795;9.14184224;2023-04-27T00:56:07;98329.56;;;8.40;73.26
216;BME280;64590;48.81286795;9.14184224;2023-04-27T00:58:34;98322.47;;;8.39;73.40
216;BME280;64590;48.81286795;9.14184224;2023-04-27T01:01:02;98327.78;;;8.58;72.77
216;BME280;64590;48.81286795;9.14184224;2023-04-27T01:03:30;98330.84;;;8.49;72.94
216;BME280;64590;48.81286795;9.14184224;2023-04-27T01:05:56;98329.16;;;8.38;73.52
216;BME280;64590;48.81286795;9.14184224;2023-04-27T01:08:26;98328.56;;;8.55;73.90
216;BME280;64590;48.81286795;9.14184224;2023-04-27T01:10:53;98326.44;;;8.78;72.34
216;BME280;64590;48.81286795;9.14184224;2023-04-27T01:13:20;98330.69;;;8.69;72.12
216;BME280;64590;48.81286795;9.14184224;2023-04-27T01:15:46;98335.59;;;8.49;72.08
216;BME280;64590;48.81286795;9.14184224;2023-04-27T01:18:14;98336.06;;;8.55;72.36
216;BME280;64590;48.81286795;9.14184224;2023-04-27T01:20:41;98311.78;;;8.37;72.61
216;BME280;64590;48.81286795;9.14184224;2023-04-27T01:23:13;98342.16;;;8.71;72.22
216;BME280;64590;48.81286795;9.14184224;2023-04-27T01:25:41;98333.31;;;8.58;72.58
216;BME280;64590;48.81286795;9.14184224;2023-04-27T01:28:07;98342.88;;;8.31;72.23
216;BME280;64590;48.81286795;9.14184224;2023-04-27T01:30:36;98338.41;;;8.19;72.82
216;BME280;64590;48.81286795;9.14184224;2023-04-27T01:33:02;98343.00;;;8.38;73.90
216;BME280;64590;48.81286795;9.14184224;2023-04-27T01:35:29;98330.88;;;7.86;73.11
216;BME280;64590;48.81286795;9.14184224;2023-04-27T01:37:58;98329.16;;;7.74;73.43
216;BME280;64590;48.81286795;9.14184224;2023-04-27T01:40:27;98329.72;;;8.20;73.46
216;BME280;64590;48.81286795;9.14184224;2023-04-27T01:42:53;98335.28;;;8.54;72.29
216;BME280;64590;48.81286795;9.14184224;2023-04-27T01:45:20;98333.97;;;8.44;71.89
216;BME280;64590;48.81286795;9.14184224;2023-04-27T01:47:49;98331.44;;;8.32;71.86
216;BME280;64590;48.81286795;9.14184224;2023-04-27T01:50:18;98338.50;;;8.26;72.62
216;BME280;64590;48.81286795;9.14184224;2023-04-27T01:52:45;98332.09;;;8.22;72.40
216;BME280;64590;48.81286795;9.14184224;2023-04-27T01:55:11;98336.84;;;8.21;72.78
216;BME280;64590;48.81286795;9.14184224;2023-04-27T01:57:39;98337.22;;;8.20;72.59
216;BME280;64590;48.81286795;9.14184224;2023-04-27T02:00:07;98334.78;;;8.15;72.86
216;BME280;64590;48.81286795;9.14184224;2023-04-27T02:02:46;98344.16;;;8.07;72.72
216;BME280;64590;48.81286795;9.14184224;2023-04-27T02:05:15;98345.31;;;8.02;74.04
216;BME280;64590;48.81286795;9.14184224;2023-04-27T02:07:42;98338.63;;;7.73;74.27
216;BME280;64590;48.81286795;9.14184224;2023-04-27T02:10:09;98349.00;;;7.83;74.07
216;BME280;64590;48.81286795;9.14184224;2023-04-27T02:12:36;98351.59;;;7.73;75.42
216;BME280;64590;48.81286795;9.14184224;2023-04-27T02:15:05;98353.75;;;8.16;74.55
216;BME280;64590;48.81286795;9.14184224;2023-04-27T02:17:33;98350.50;;;8.37;73.29
216;BME280;64590;48.81286795;9.14184224;2023-04-27T02:19:59;98347.53;;;8.23;73.23
216;BME280;64590;48.81286795;9.14184224;2023-04-27T02:22:26;98360.31;;;8.01;73.35
216;BME280;64590;48.81286795;9.14184224;2023-04-27T02:24:52;98347.50;;;7.89;74.52
216;BME280;64590;48.81286795;9.14184224;2023-04-27T02:27:19;98349.91;;;7.91;74.94
216;BME280;64590;48.81286795;9.14184224;2023-04-27T02:29:46;98354.59;;;7.90;74.65
216;BME280;64590;48.81286795;9.14184224;2023-04-27T02:32:14;98345.34;;;7.76;74.54
216;BME280;64590;48.81286795;9.14184224;2023-04-27T02:34:40;98359.97;;;7.76;74.79
216;BME280;64590;48.81286795;9.14184224;2023-04-27T02:37:07;98357.50;;;7.71;75.86
216;BME280;64590;48.81286795;9.14184224;2023-04-27T02:39:34;98357.56;;;7.75;75.55
216;BME280;64590;48.81286795;9.14184224;2023-04-27T02:42:01;98362.59;;;7.96;75.22
216;BME280;64590;48.81286795;9.14184224;2023-04-27T02:44:28;98368.97;;;8.00;75.17
216;BME280;64590;48.81286795;9.14184224;2023-04-27T02:46:56;98360.25;;;8.31;75.35
216;BME280;64590;48.81286795;9.14184224;2023-04-27T02:49:24;98358.19;;;8.25;74.14
216;BME280;64590;48.81286795;9.14184224;2023-04-27T02:51:50;98362.78;;;8.10;74.54
216;BME280;64590;48.81286795;9.14184224;2023-04-27T02:54:17;98367.72;;;7.97;75.00
216;BME280;64590;48.81286795;9.14184224;2023-04-27T02:56:44;98352.19;;;7.85;75.75
216;BME280;64590;48.81286795;9.14184224;2023-04-27T02:59:10;98369.09;;;8.10;75.09
216;BME280;64590;48.81286795;9.14184224;2023-04-27T03:01:37;98369.31;;;8.28;74.74
216;BME280;64590;48.81286795;9.14184224;2023-04-27T03:04:04;98366.56;;;8.28;74.18
216;BME280;64590;48.81286795;9.14184224;2023-04-27T03:06:32;98372.41;;;8.23;74.84
216;BME280;64590;48.81286795;9.14184224;2023-04-27T03:08:58;98370.63;;;8.08;74.94
216;BME280;64590;48.81286795;9.14184224;2023-04-27T03:11:26;98361.16;;;7.79;76.66
216;BME280;64590;48.81286795;9.14184224;2023-04-27T03:13:53;98365.13;;;7.81;77.30
216;BME280;64590;48.81286795;9.14184224;2023-04-27T03:16:19;98364.03;;;8.16;75.39
216;BME280;64590;48.81286795;9.14184224;2023-04-27T03:18:46;98369.06;;;7.80;77.92
216;BME280;64590;48.81286795;9.14184224;2023-04-27T03:21:12;98367.56;;;7.83;77.65
216;BME280;64590;48.81286795;9.14184224;2023-04-27T03:23:42;98362.63;;;7.99;77.37
216;BME280;64590;48.81286795;9.14184224;2023-04-27T03:26:10;98369.84;;;8.07;77.57
216;BME280;64590;48.81286795;9.14184224;2023-04-27T03:28:38;98365.38;;;8.29;75.73
216;BME280;64590;48.81286795;9.14184224;2023-04-27T03:31:05;98370.69;;;8.11;76.01
216;BME280;64590;48.81286795;9.14184224;2023-04-27T03:33:31;98367.34;;;7.99;77.09
216;BME280;64590;48.81286795;9.14184224;2023-04-27T03:35:59;98357.22;;;7.80;77.89
216;BME280;64590;48.81286795;9.14184224;2023-04-27T03:38:26;98369.84;;;7.77;77.58
216;BME280;64590;48.81286795;9.14184224;2023-04-27T03:40:54;98367.75;;;7.71;77.49
216;BME280;64590;48.81286795;9.14184224;2023-04-27T03:43:21;98362.44;;;7.85;77.31
216;BME280;64590;48.81286795;9.14184224;2023-04-27T03:45:47;98369.66;;;7.93;76.99
216;BME280;64590;48.81286795;9.14184224;2023-04-27T03:48:14;98376.53;;;7.76;77.59
216;BME280;64590;48.81286795;9.14184224;2023-04-27T03:50:41;98374.09;;;7.71;77.38
216;BME280;64590;48.81286795;9.14184224;2023-04-27T03:53:08;98377.22;;;7.70;77.48
216;BME280;64590;48.81286795;9.14184224;2023-04-27T03:55:37;98375.88;;;7.86;77.14
216;BME280;64590;48.81286795;9.14184224;2023-04-27T03:58:05;98376.63;;;7.83;76.82
216;BME280;64590;48.81286795;9.14184224;2023-04-27T04:00:32;98376.81;;;7.98;76.35
216;BME280;64590;48.81286795;9.14184224;2023-04-27T04:02:59;98375.31;;;8.04;76.57
216;BME280;64590;48.81286795;9.14184224;2023-04-27T04:05:26;98370.22;;;8.06;76.94
216;BME280;64590;48.81286795;9.14184224;2023-04-27T04:07:53;98372.53;;;8.00;77.78
216;BME280;64590;48.81286795;9.14184224;2023-04-27T04:10:22;98374.41;;;7.92;77.91
216;BME280;64590;48.81286795;9.14184224;2023-04-27T04:12:49;98374.41;;;7.92;78.03
216;BME280;64590;48.81286795;9.14184224;2023-04-27T04:15:18;98379.53;;;7.94;77.74
216;BME280;64590;48.81286795;9.14184224;2023-04-27T04:17:45;98380.22;;;7.87;78.61
216;BME280;64590;48.81286795;9.14184224;2023-04-27T04:20:13;98371.13;;;7.83;79.21
216;BME280;64590;48.81286795;9.14184224;2023-04-27T04:22:40;98369.13;;;8.14;78.40
216;BME280;64590;48.81286795;9.14184224;2023-04-27T04:25:07;98374.84;;;8.28;78.04
216;BME280;64590;48.81286795;9.14184224;2023-04-27T04:27:34;98380.91;;;8.37;77.33
216;BME280;64590;48.81286795;9.14184224;2023-04-27T04:30:02;98378.03;;;8.30;77.27
216;BME280;64590;48.81286795;9.14184224;2023-04-27T04:32:33;98387.91;;;8.31;77.43
216;BME280;64590;48.81286795;9.14184224;2023-04-27T04:35:02;98383.94;;;8.29;77.40
216;BME280;64590;48.81286795;9.14184224;2023-04-27T04:37:32;98389.59;;;8.36;76.58
216;BME280;64590;48.81286795;9.14184224;2023-04-27T04:39:58;98389.47;;;8.29;76.84
216;BME280;64590;48.81286795;9.14184224;2023-04-27T04:42:25;98385.06;;;8.24;77.25
216;BME280;64590;48.81286795;9.14184224;2023-04-27T04:44:52;98387.41;;;8.22;78.65
216;BME280;64590;48.81286795;9.14184224;2023-04-27T04:47:19;98389.38;;;8.21;78.25
216;BME280;64590;48.81286795;9.14184224;2023-04-27T04:49:47;98389.97;;;8.08;78.28
216;BME280;64590;48.81286795;9.14184224;2023-04-27T04:52:14;98385.28;;;8.08;78.76
216;BME280;64590;48.81286795;9.14184224;2023-04-27T04:54:41;98390.69;;;8.01;79.47
216;BME280;64590;48.81286795;9.14184224;2023-04-27T04:57:07;98390.38;;;8.36;77.98
216;BME280;64590;48.81286795;9.14184224;2023-04-27T04:59:34;98387.91;;;8.31;78.40
216;BME280;64590;48.81286795;9.14184224;2023-04-27T05:02:01;98394.88;;;8.48;78.18
216;BME280;64590;48.81286795;9.14184224;2023-04-27T05:04:28;98389.00;;;8.53;77.66
216;BME280;64590;48.81286795;9.14184224;2023-04-27T05:06:56;98394.63;;;8.60;77.70
216;BME280;64590;48.81286795;9.14184224;2023-04-27T05:09:24;98395.44;;;8.61;77.03
216;BME280;64590;48.81286795;9.14184224;2023-04-27T05:11:50;98391.69;;;8.83;76.81
216;BME280;64590;48.81286795;9.14184224;2023-04-27T05:14:17;98388.03;;;8.72;77.64
216;BME280;64590;48.81286795;9.14184224;2023-04-27T05:16:44;98395.66;;;8.86;76.43
216;BME280;64590;48.81286795;9.14184224;2023-04-27T05:19:13;98392.59;;;8.94;75.23
216;BME280;64590;48.81286795;9.14184224;2023-04-27T05:21:42;98398.78;;;8.81;75.34
216;BME280;64590;48.81286795;9.14184224;2023-04-27T05:24:10;98394.09;;;8.85;75.59
216;BME280;64590;48.81286795;9.14184224;2023-04-27T05:26:37;98390.66;;;8.98;74.74
216;BME280;64590;48.81286795;9.14184224;2023-04-27T05:29:04;98394.53;;;8.90;73.14
216;BME280;64590;48.81286795;9.14184224;2023-04-27T05:31:30;98396.53;;;8.93;71.85
216;BME280;64590;48.81286795;9.14184224;2023-04-27T05:33:57;98392.28;;;9.03;73.94
216;BME280;64590;48.81286795;9.14184224;2023-04-27T05:36:24;98401.66;;;9.32;71.04
216;BME280;64590;48.81286795;9.14184224;2023-04-27T05:38:51;98407.00;;;9.11;72.60
216;BME280;64590;48.81286795;9.14184224;2023-04-27T05:41:19;98397.97;;;9.21;71.71
216;BME280;64590;48.81286795;9.14184224;2023-04-27T05:43:45;98406.06;;;8.96;71.96
216;BME280;64590;48.81286795;9.14184224;2023-04-27T05:46:12;98409.41;;;9.12;71.30
216;BME280;64590;48.81286795;9.14184224;2023-04-27T05:48:39;98390.34;;;9.07;72.72
216;BME280;64590;48.81286795;9.14184224;2023-04-27T05:51:06;98405.69;;;9.42;71.85
216;BME280;64590;48.81286795;9.14184224;2023-04-27T05:53:33;98407.31;;;9.46;70.81
216;BME280;64590;48.81286795;9.14184224;2023-04-27T05:56:00;98406.63;;;9.56;70.76
216;BME280;64590;48.81286795;9.14184224;2023-04-27T05:58:30;98412.50;;;9.55;69.85
216;BME280;64590;48.81286795;9.14184224;2023-04-27T06:00:57;98417.03;;;9.74;69.76
216;BME280;64590;48.81286795;9.14184224;2023-04-27T06:03:24;98427.53;;;9.50;70.53
216;BME280;64590;48.81286795;9.14184224;2023-04-27T06:05:53;98418.25;;;9.80;70.12
216;BME280;64590;48.81286795;9.14184224;2023-04-27T06:08:19;98417.38;;;9.69;70.36
216;BME280;64590;48.81286795;9.14184224;2023-04-27T06:10:46;98422.59;;;9.74;69.47
216;BME280;64590;48.81286795;9.14184224;2023-04-27T06:13:12;98419.53;;;9.93;68.72
216;BME280;64590;48.81286795;9.14184224;2023-04-27T06:15:40;98426.50;;;9.69;70.34
216;BME280;64590;48.81286795;9.14184224;2023-04-27T06:18:07;98424.06;;;9.64;70.74
216;BME280;64590;48.81286795;9.14184224;2023-04-27T06:20:34;98419.00;;;9.73;70.21
216;BME280;64590;48.81286795;9.14184224;2023-04-27T06:23:01;98426.44;;;10.17;68.46
216;BME280;64590;48.81286795;9.14184224;2023-04-27T06:25:27;98427.13;;;10.07;67.81
216;BME280;64590;48.81286795;9.14184224;2023-04-27T06:27:54;98426.38;;;10.13;67.46
216;BME280;64590;48.81286795;9.14184224;2023-04-27T06:30:20;98434.25;;;10.01;67.28
216;BME280;64590;48.81286795;9.14184224;2023-04-27T06:32:50;98417.56;;;9.94;66.92
216;BME280;64590;48.81286795;9.14184224;2023-04-27T06:35:17;98433.13;;;10.16;67.41
216;BME280;64590;48.81286795;9.14184224;2023-04-27T06:37:44;98433.28;;;10.34;67.43
216;BME280;64590;48.81286795;9.14184224;2023-04-27T06:40:11;98434.47;;;10.36;67.32
216;BME280;64590;48.81286795;9.14184224;2023-04-27T06:42:38;98428.09;;;10.29;67.49
216;BME280;64590;48.81286795;9.14184224;2023-04-27T06:45:05;98441.22;;;10.35;68.86
216;BME280;64590;48.81286795;9.14184224;2023-04-27T06:47:32;98441.69;;;10.55;67.32
216;BME280;64590;48.81286795;9.14184224;2023-04-27T06:50:00;98441.72;;;10.62;67.67
216;BME280;64590;48.81286795;9.14184224;2023-04-27T08:43:50;98405.28;;;13.15;53.34
216;BME280;64590;48.81286795;9.14184224;2023-04-27T08:46:18;98410.84;;;13.12;52.87
216;BME280;64590;48.81286795;9.14184224;2023-04-27T08:48:46;98406.06;;;13.16;53.82
216;BME280;64590;48.81286795;9.14184224;2023-04-27T08:51:14;98394.06;;;13.29;53.88
216;BME280;64590;48.81286795;9.14184224;2023-04-27T08:53:45;98394.75;;;13.44;54.03
216;BME280;64590;48.81286795;9.14184224;2023-04-27T08:56:13;98401.00;;;13.59;52.32
216;BME280;64590;48.81286795;9.14184224;2023-04-27T08:58:39;98397.63;;;13.78;53.02
216;BME280;64590;48.81286795;9.14184224;2023-04-27T09:01:07;98391.72;;;13.73;51.67
216;BME280;64590;48.81286795;9.14184224;2023-04-27T09:03:34;98390.84;;;13.83;51.75
216;BME280;64590;48.81286795;9.14184224;2023-04-27T09:06:02;98392.38;;;13.88;52.38
216;BME280;64590;48.81286795;9.14184224;2023-04-27T09:08:39;98386.78;;;13.88;50.54
216;BME280;64590;48.81286795;9.14184224;2023-04-27T09:11:06;98400.69;;;13.50;50.91
216;BME280;64590;48.81286795;9.14184224;2023-04-27T09:13:36;98404.25;;;13.50;50.71
216;BME280;64590;48.81286795;9.14184224;2023-04-27T09:16:04;98406.06;;;13.71;50.47
216;BME280;64590;48.81286795;9.14184224;2023-04-27T09:18:35;98405.41;;;13.98;51.71
216;BME280;64590;48.81286795;9.14184224;2023-04-27T09:21:02;98404.59;;;14.01;49.80
216;BME280;64590;48.81286795;9.14184224;2023-04-27T09:23:30;98402.69;;;13.46;50.39
216;BME280;64590;48.81286795;9.14184224;2023-04-27T09:25:58;98408.00;;;13.81;49.22
216;BME280;64590;48.81286795;9.14184224;2023-04-27T09:28:26;98405.50;;;13.91;49.98
216;BME280;64590;48.81286795;9.14184224;2023-04-27T09:30:53;98410.19;;;14.01;50.05
216;BME280;64590;48.81286795;9.14184224;2023-04-27T09:33:25;98413.16;;;13.79;49.11
216;BME280;64590;48.81286795;9.14184224;2023-04-27T09:35:53;98406.84;;;13.75;48.45
216;BME280;64590;48.81286795;9.14184224;2023-04-27T09:38:21;98408.69;;;13.89;49.78
216;BME280;64590;48.81286795;9.14184224;2023-04-27T09:40:49;98402.78;;;13.80;49.69
216;BME280;64590;48.81286795;9.14184224;2023-04-27T09:43:16;98408.38;;;13.80;50.98
216;BME280;64590;48.81286795;9.14184224;2023-04-27T09:45:42;98408.84;;;13.71;50.72
216;BME280;64590;48.81286795;9.14184224;2023-04-27T09:48:09;98404.84;;;13.76;50.27
216;BME280;64590;48.81286795;9.14184224;2023-04-27T09:50:38;98402.75;;;13.87;49.93
216;BME280;64590;48.81286795;9.14184224;2023-04-27T09:53:08;98404.00;;;13.79;49.20
216;BME280;64590;48.81286795;9.14184224;2023-04-27T09:55:39;98396.00;;;14.22;51.26
216;BME280;64590;48.81286795;9.14184224;2023-04-27T09:58:38;98394.34;;;14.28;49.21
216;BME280;64590;48.81286795;9.14184224;2023-04-27T10:01:14;98387.38;;;14.09;48.94
216;BME280;64590;48.81286795;9.14184224;2023-04-27T10:03:50;98393.97;;;14.26;48.46
216;BME280;64590;48.81286795;9.14184224;2023-04-27T10:06:50;98391.47;;;14.35;49.78
216;BME280;64590;48.81286795;9.14184224;2023-04-27T10:09:23;98394.03;;;14.57;47.52
216;BME280;64590;48.81286795;9.14184224;2023-04-27T10:11:51;98399.66;;;14.53;47.98
216;BME280;64590;48.81286795;9.14184224;2023-04-27T10:14:18;98390.28;;;14.33;47.21
216;BME280;64590;48.81286795;9.14184224;2023-04-27T10:16:48;98397.66;;;14.54;48.04
216;BME280;64590;48.81286795;9.14184224;2023-04-27T10:19:15;98394.91;;;14.50;48.81
216;BME280;64590;48.81286795;9.14184224;2023-04-27T10:21:52;98395.25;;;14.56;46.89
216;BME280;64590;48.81286795;9.14184224;2023-04-27T10:24:32;98395.16;;;14.63;48.60
216;BME280;64590;48.81286795;9.14184224;2023-04-27T10:27:01;98387.94;;;14.96;47.36
216;BME280;64590;48.81286795;9.14184224;2023-04-27T10:29:37;98392.75;;;14.92;47.54
216;BME280;64590;48.81286795;9.14184224;2023-04-27T10:32:09;98395.25;;;14.86;47.68
216;BME280;64590;48.81286795;9.14184224;2023-04-27T10:34:36;98396.34;;;14.92;50.03
216;BME280;64590;48.81286795;9.14184224;2023-04-27T10:37:08;98396.44;;;14.85;47.01
216;BME280;64590;48.81286795;9.14184224;2023-04-27T10:39:38;98383.50;;;14.68;45.89
216;BME280;64590;48.81286795;9.14184224;2023-04-27T10:42:05;98386.53;;;14.81;46.28
216;BME280;64590;48.81286795;9.14184224;2023-04-27T10:44:34;98381.13;;;14.66;45.08
216;BME280;64590;48.81286795;9.14184224;2023-04-27T10:47:11;98380.63;;;14.41;45.73
216;BME280;64590;48.81286795;9.14184224;2023-04-27T10:49:38;98372.84;;;14.59;45.46
216;BME280;64590;48.81286795;9.14184224;2023-04-27T10:52:05;98365.19;;;14.94;45.19
216;BME280;64590;48.81286795;9.14184224;2023-04-27T10:54:32;98365.84;;;15.05;47.11
216;BME280;64590;48.81286795;9.14184224;2023-04-27T10:57:08;98371.00;;;15.07;46.09
216;BME280;64590;48.81286795;9.14184224;2023-04-27T10:59:46;98372.91;;;15.37;45.27
216;BME280;64590;48.81286795;9.14184224;2023-04-27T11:02:14;98378.28;;;15.51;46.23
216;BME280;64590;48.81286795;9.14184224;2023-04-27T11:04:40;98369.22;;;15.43;45.78
216;BME280;64590;48.81286795;9.14184224;2023-04-27T11:07:08;98372.22;;;15.56;45.14
216;BME280;64590;48.81286795;9.14184224;2023-04-27T11:09:35;98369.53;;;15.49;43.85
216;BME280;64590;48.81286795;9.14184224;2023-04-27T11:12:07;98363.94;;;15.49;45.50
216;BME280;64590;48.81286795;9.14184224;2023-04-27T11:14:34;98372.94;;;15.64;44.70
216;BME280;64590;48.81286795;9.14184224;2023-04-27T11:17:01;98367.72;;;15.62;44.43
216;BME280;64590;48.81286795;9.14184224;2023-04-27T11:19:28;98365.44;;;15.53;44.67
216;BME280;64590;48.81286795;9.14184224;2023-04-27T11:22:02;98358.88;;;15.67;44.97
216;BME280;64590;48.81286795;9.14184224;2023-04-27T11:24:28;98368.63;;;15.55;44.14
216;BME280;64590;48.81286795;9.14184224;2023-04-27T11:26:55;98369.44;;;15.56;43.68
216;BME280;64590;48.81286795;9.14184224;2023-04-27T11:29:23;98359.06;;;15.53;43.55
216;BME280;64590;48.81286795;9.14184224;2023-04-27T11:31:50;98366.03;;;15.92;42.88
216;BME280;64590;48.81286795;9.14184224;2023-04-27T11:34:18;98340.41;;;15.93;43.24
216;BME280;64590;48.81286795;9.14184224;2023-04-27T11:36:55;98361.75;;;15.64;44.43
216;BME280;64590;48.81286795;9.14184224;2023-04-27T11:39:22;98358.44;;;15.69;43.10
216;BME280;64590;48.81286795;9.14184224;2023-04-27T11:41:51;98370.16;;;15.60;43.50
216;BME280;64590;48.81286795;9.14184224;2023-04-27T11:44:25;98362.38;;;15.71;43.07
216;BME280;64590;48.81286795;9.14184224;2023-04-27T11:46:52;98375.59;;;15.71;43.81
216;BME280;64590;48.81286795;9.14184224;2023-04-27T11:49:19;98372.31;;;16.19;44.11
216;BME280;64590;48.81286795;9.14184224;2023-04-27T11:51:45;98366.38;;;16.77;41.37
216;BME280;64590;48.81286795;9.14184224;2023-04-27T11:54:13;98359.88;;;16.60;40.60
216;BME280;64590;48.81286795;9.14184224;2023-04-27T11:56:40;98360.81;;;16.53;41.34
216;BME280;64590;48.81286795;9.14184224;2023-04-27T11:59:17;98352.59;;;17.18;42.66
216;BME280;64590;48.81286795;9.14184224;2023-04-27T12:01:46;98355.28;;;17.06;41.93
216;BME280;64590;48.81286795;9.14184224;2023-04-27T12:04:12;98355.13;;;17.13;41.77
216;BME280;64590;48.81286795;9.14184224;2023-04-27T12:06:39;98354.00;;;17.43;40.01
216;BME280;64590;48.81286795;9.14184224;2023-04-27T12:09:05;98344.41;;;17.08;40.66
216;BME280;64590;48.81286795;9.14184224;2023-04-27T12:11:32;98338.50;;;17.38;41.24
216;BME280;64590;48.81286795;9.14184224;2023-04-27T12:14:06;98342.50;;;17.53;40.13
216;BME280;64590;48.81286795;9.14184224;2023-04-27T12:16:33;98336.63;;;17.64;40.87
216;BME280;64590;48.81286795;9.14184224;2023-04-27T12:19:01;98338.75;;;17.76;40.00
216;BME280;64590;48.81286795;9.14184224;2023-04-27T12:21:27;98337.47;;;18.23;41.25
216;BME280;64590;48.81286795;9.14184224;2023-04-27T12:23:54;98332.06;;;17.87;41.83
216;BME280;64590;48.81286795;9.14184224;2023-04-27T12:26:20;98334.88;;;17.54;41.04
216;BME280;64590;48.81286795;9.14184224;2023-04-27T12:28:47;98330.31;;;17.28;40.52
216;BME280;64590;48.81286795;9.14184224;2023-04-27T12:31:14;98333.84;;;17.48;39.28
216;BME280;64590;48.81286795;9.14184224;2023-04-27T12:33:43;98328.69;;;17.46;38.96
216;BME280;64590;48.81286795;9.14184224;2023-04-27T12:36:11;98330.25;;;17.47;39.18
216;BME280;64590;48.81286795;9.14184224;2023-04-27T12:38:37;98327.09;;;18.36;38.91
216;BME280;64590;48.81286795;9.14184224;2023-04-27T12:41:04;98319.53;;;19.00;38.61
216;BME280;64590;48.81286795;9.14184224;2023-04-27T12:43:30;98326.75;;;19.01;40.08
216;BME280;64590;48.81286795;9.14184224;2023-04-27T12:45:57;98317.66;;;18.43;39.15
216;BME280;64590;48.81286795;9.14184224;2023-04-27T12:48:24;98321.53;;;18.61;40.06
216;BME280;64590;48.81286795;9.14184224;2023-04-27T12:50:50;98314.53;;;18.53;37.84
216;BME280;64590;48.81286795;9.14184224;2023-04-27T12:53:18;98320.25;;;18.50;40.19
216;BME280;64590;48.81286795;9.14184224;2023-04-27T12:55:46;98311.19;;;18.17;39.74
216;BME280;64590;48.81286795;9.14184224;2023-04-27T12:58:13;98315.75;;;18.11;40.79
216;BME280;64590;48.81286795;9.14184224;2023-04-27T13:00:40;98307.63;;;18.29;41.01
216;BME280;64590;48.81286795;9.14184224;2023-04-27T13:03:07;98305.44;;;18.20;39.91
216;BME280;64590;48.81286795;9.14184224;2023-04-27T13:05:33;98311.88;;;17.92;39.58
216;BME280;64590;48.81286795;9.14184224;2023-04-27T13:08:00;98306.91;;;17.83;38.20
216;BME280;64590;48.81286795;9.14184224;2023-04-27T13:10:28;98295.41;;;17.45;39.68
216;BME280;64590;48.81286795;9.14184224;2023-04-27T13:12:55;98308.31;;;17.42;40.46
216;BME280;64590;48.81286795;9.14184224;2023-04-27T13:15:22;98304.72;;;17.42;39.43
216;BME280;64590;48.81286795;9.14184224;2023-04-27T13:17:48;98301.00;;;17.61;39.98
216;BME280;64590;48.81286795;9.14184224;2023-04-27T13:20:17;98307.34;;;17.65;40.59
216;BME280;64590;48.81286795;9.14184224;2023-04-27T13:22:44;98302.88;;;17.51;40.90
216;BME280;64590;48.81286795;9.14184224;2023-04-27T13:25:10;98306.97;;;17.63;40.68
216;BME280;64590;48.81286795;9.14184224;2023-04-27T13:27:38;98309.06;;;17.92;40.72
216;BME280;64590;48.81286795;9.14184224;2023-04-27T13:30:06;98304.88;;;17.84;41.84
216;BME280;64590;48.81286795;9.14184224;2023-04-27T13:32:33;98290.97;;;17.47;41.55
216;BME280;64590;48.81286795;9.14184224;2023-04-27T13:35:00;98305.75;;;17.64;41.25
216;BME280;64590;48.81286795;9.14184224;2023-04-27T13:37:28;98293.78;;;17.15;40.40
216;BME280;64590;48.81286795;9.14184224;2023-04-27T13:39:54;98297.00;;;16.97;41.05
216;BME280;64590;48.81286795;9.14184224;2023-04-27T13:42:21;98297.03;;;17.30;44.01
216;BME280;64590;48.81286795;9.14184224;2023-04-27T13:44:54;98291.56;;;17.55;40.79